createdAt,value
2022-12-01T00:01:21.344Z,88.10
2022-12-01T00:03:49.539Z,91.63
2022-12-01T00:06:19.128Z,87.93
2022-12-01T00:09:03.804Z,84.50
2022-12-01T00:11:31.710Z,95.03
2022-12-01T00:13:59.605Z,88.07
2022-12-01T00:16:27.520Z,86.60
2022-12-01T00:18:56.293Z,93.47
2022-12-01T00:21:25.703Z,97.67
2022-12-01T00:23:57.348Z,94.40
2022-12-01T00:26:26.281Z,91.43
2022-12-01T00:28:55.641Z,83.80
2022-12-01T00:31:24.153Z,92.47
2022-12-01T00:33:52.233Z,80.97
2022-12-01T00:36:20.370Z,83.17
2022-12-01T00:38:48.449Z,98.97
2022-12-01T00:41:18.158Z,86.13
2022-12-01T00:43:46.010Z,83.40
2022-12-01T00:46:13.889Z,90.53
2022-12-01T00:48:41.721Z,90.67
2022-12-01T00:51:09.589Z,84.80
2022-12-01T00:53:37.423Z,86.03
2022-12-01T00:56:05.588Z,95.83
2022-12-01T00:58:34.766Z,95.50
2022-12-01T01:01:03.018Z,84.17
2022-12-01T01:03:31.526Z,81.73
2022-12-01T01:06:05.873Z,82.50
2022-12-01T01:08:33.762Z,87.50
2022-12-01T01:11:02.222Z,78.13
2022-12-01T01:13:30.333Z,81.27
2022-12-01T01:16:00.703Z,77.00
2022-12-01T01:18:29.040Z,85.93
2022-12-01T01:20:58.443Z,70.40
2022-12-01T01:23:26.682Z,86.60
2022-12-01T01:25:54.495Z,96.97
2022-12-01T01:28:22.274Z,89.83
2022-12-01T01:30:50.091Z,77.00
2022-12-01T01:33:19.313Z,74.03
2022-12-01T01:35:47.122Z,85.07
2022-12-01T01:38:14.993Z,90.83
2022-12-01T01:40:45.169Z,88.80
2022-12-01T01:43:16.830Z,78.53
2022-12-01T01:45:45.076Z,83.47
2022-12-01T01:48:15.257Z,108.67
2022-12-01T01:50:44.507Z,85.20
2022-12-01T01:53:15.546Z,84.27
2022-12-01T01:55:43.577Z,82.70
2022-12-01T01:58:12.010Z,81.60
2022-12-01T02:00:41.859Z,89.13
2022-12-01T02:03:13.857Z,94.97
2022-12-01T02:05:44.658Z,91.33
2022-12-01T02:08:14.054Z,85.60
2022-12-01T02:10:56.654Z,90.73
2022-12-01T02:13:34.623Z,107.50
2022-12-01T02:16:10.542Z,89.60
2022-12-01T02:18:48.431Z,91.10
2022-12-01T02:21:36.458Z,82.43
2022-12-01T02:24:33.390Z,91.23
2022-12-01T02:27:05.799Z,94.97
2022-12-01T02:30:03.382Z,91.73
2022-12-01T02:32:40.957Z,89.97
2022-12-01T02:35:15.590Z,86.43
2022-12-01T02:37:50.289Z,95.10
2022-12-01T02:40:25.275Z,97.30
2022-12-01T02:43:03.201Z,91.13
2022-12-01T02:45:40.670Z,86.37
2022-12-01T02:48:15.200Z,85.63
2022-12-01T02:50:44.862Z,84.87
2022-12-01T02:53:16.630Z,78.47
2022-12-01T02:55:49.407Z,85.97
2022-12-01T02:58:17.302Z,85.90
2022-12-01T03:01:08.544Z,77.70
2022-12-01T03:04:01.536Z,84.13
2022-12-01T03:06:41.706Z,79.87
2022-12-01T03:09:18.859Z,84.97
2022-12-01T03:11:56.665Z,86.47
2022-12-01T03:14:35.263Z,82.53
2022-12-01T03:17:08.538Z,78.07
2022-12-01T03:19:42.893Z,84.40
2022-12-01T03:22:15.812Z,82.83
2022-12-01T03:24:47.511Z,72.93
2022-12-01T03:27:19.556Z,86.07
2022-12-01T03:29:51.053Z,76.53
2022-12-01T03:32:25.766Z,88.80
2022-12-01T03:34:59.050Z,80.30
2022-12-01T03:37:36.964Z,93.87
2022-12-01T03:40:08.993Z,90.17
2022-12-01T03:42:42.537Z,96.17
2022-12-01T03:45:16.306Z,88.00
2022-12-01T03:47:45.139Z,80.97
2022-12-01T03:50:16.307Z,80.60
2022-12-01T03:52:50.213Z,87.90
2022-12-01T03:55:23.591Z,82.43
2022-12-01T03:57:57.134Z,83.50
2022-12-01T04:00:25.932Z,77.10
2022-12-01T04:02:56.551Z,95.73
2022-12-01T04:05:26.329Z,82.30
2022-12-01T04:07:54.621Z,82.87
2022-12-01T04:10:22.528Z,81.10
2022-12-01T04:12:49.554Z,90.90
2022-12-01T04:15:18.045Z,86.20
2022-12-01T04:17:45.927Z,88.67
2022-12-01T04:20:15.441Z,77.80
2022-12-01T04:22:45.258Z,88.83
2022-12-01T04:25:13.085Z,75.03
2022-12-01T04:27:40.890Z,80.00
2022-12-01T04:30:10.792Z,77.00
2022-12-01T04:32:40.055Z,92.97
2022-12-01T04:35:08.682Z,87.03
2022-12-01T04:37:36.889Z,91.90
2022-12-01T04:40:07.578Z,87.07
2022-12-01T04:42:35.432Z,95.87
2022-12-01T04:45:03.306Z,100.17
2022-12-01T04:47:31.133Z,96.77
2022-12-01T04:49:58.984Z,112.20
2022-12-01T04:52:29.461Z,97.87
2022-12-01T04:55:01.498Z,105.40
2022-12-01T04:57:30.708Z,102.70
2022-12-01T04:59:58.510Z,104.87
2022-12-01T05:02:26.463Z,100.50
2022-12-01T05:04:54.322Z,100.60
2022-12-01T05:07:22.162Z,110.27
2022-12-01T05:09:50.352Z,125.60
2022-12-01T05:12:18.335Z,105.30
2022-12-01T05:14:47.527Z,120.70
2022-12-01T05:17:15.332Z,100.47
2022-12-01T05:19:57.099Z,113.63
2022-12-01T05:22:56.875Z,109.37
2022-12-01T05:25:12.642Z,114.80
2022-12-01T05:27:40.446Z,107.60
2022-12-01T05:30:11.157Z,116.50
2022-12-01T05:32:38.934Z,111.40
2022-12-01T05:35:07.819Z,112.27
2022-12-01T05:37:35.679Z,104.60
2022-12-01T05:40:03.537Z,103.07
2022-12-01T05:42:31.354Z,111.93
2022-12-01T05:44:59.142Z,114.27
2022-12-01T05:47:28.292Z,110.60
2022-12-01T05:49:58.531Z,119.43
2022-12-01T05:52:30.091Z,127.30
2022-12-01T05:54:57.906Z,111.37
2022-12-01T05:57:25.675Z,113.87
2022-12-01T05:59:53.552Z,112.87
2022-12-01T06:02:21.713Z,107.83
2022-12-01T06:04:50.970Z,112.50
2022-12-01T06:07:18.785Z,117.87
2022-12-01T06:09:46.886Z,119.50
2022-12-01T06:12:16.017Z,111.90
2022-12-01T06:14:43.877Z,122.40
2022-12-01T06:17:11.731Z,115.70
2022-12-01T06:19:39.616Z,101.43
2022-12-01T06:22:08.729Z,114.97
2022-12-01T06:24:36.732Z,112.67
2022-12-01T06:27:04.676Z,124.37
2022-12-01T06:29:32.501Z,114.03
2022-12-01T06:32:00.339Z,115.57
2022-12-01T06:34:28.265Z,119.67
2022-12-01T06:36:56.103Z,106.13
2022-12-01T06:39:25.254Z,116.93
2022-12-01T06:41:53.056Z,103.97
2022-12-01T06:44:20.858Z,116.63
2022-12-01T06:46:52.658Z,114.20
2022-12-01T06:49:21.065Z,105.23
2022-12-01T06:51:48.995Z,119.13
2022-12-01T06:54:17.829Z,109.00
2022-12-01T06:56:46.978Z,102.80
2022-12-01T06:59:15.196Z,105.47
2022-12-01T07:01:43.280Z,122.30
2022-12-01T07:04:11.310Z,120.73
2022-12-01T07:06:39.225Z,110.43
2022-12-01T07:09:07.033Z,107.87
2022-12-01T07:11:36.435Z,121.37
2022-12-01T07:14:05.593Z,119.90
2022-12-01T07:16:33.463Z,124.43
2022-12-01T07:19:01.486Z,104.93
2022-12-01T07:21:29.307Z,125.37
2022-12-01T07:23:57.149Z,124.97
2022-12-01T07:26:24.977Z,116.97
2022-12-01T07:28:54.252Z,111.60
2022-12-01T07:31:23.516Z,127.70
2022-12-01T07:33:51.392Z,115.43
2022-12-01T07:36:19.235Z,116.13
2022-12-01T07:38:47.055Z,115.93
2022-12-01T07:41:16.628Z,119.30
2022-12-01T07:43:44.553Z,102.37
2022-12-01T07:46:20.617Z,106.03
2022-12-01T07:48:51.943Z,104.10
2022-12-01T07:51:20.485Z,112.30
2022-12-01T07:53:50.203Z,117.30
2022-12-01T07:56:19.280Z,122.80
2022-12-01T07:58:47.206Z,102.83
2022-12-01T08:01:16.734Z,113.67
2022-12-01T08:03:45.019Z,119.40
2022-12-01T08:06:14.306Z,100.00
2022-12-01T08:08:42.810Z,103.03
2022-12-01T08:11:13.865Z,113.83
2022-12-01T08:13:42.879Z,124.67
2022-12-01T08:16:14.434Z,116.17
2022-12-01T08:18:43.470Z,115.70
2022-12-01T08:21:13.440Z,105.93
2022-12-01T08:23:43.277Z,122.30
2022-12-01T08:26:13.921Z,110.13
2022-12-01T08:28:42.160Z,112.23
2022-12-01T08:31:11.810Z,129.10
2022-12-01T08:33:39.850Z,115.37
2022-12-01T08:36:08.328Z,103.63
2022-12-01T08:38:36.181Z,105.23
2022-12-01T08:41:07.268Z,103.93
2022-12-01T08:43:57.208Z,111.23
2022-12-01T08:46:27.789Z,106.80
2022-12-01T08:48:57.361Z,112.60
2022-12-01T08:51:25.747Z,114.00
2022-12-01T08:53:53.629Z,109.97
2022-12-01T08:56:25.549Z,111.33
2022-12-01T08:58:54.568Z,131.47
2022-12-01T09:01:22.814Z,114.20
2022-12-01T09:04:04.899Z,98.13
2022-12-01T09:06:34.201Z,106.33
2022-12-01T09:09:02.414Z,89.07
2022-12-01T09:11:31.585Z,106.40
2022-12-01T09:14:00.613Z,107.53
2022-12-01T09:16:28.637Z,109.80
2022-12-01T09:18:56.686Z,99.20
2022-12-01T09:21:26.884Z,98.30
2022-12-01T09:23:54.993Z,89.33
2022-12-01T09:26:22.958Z,107.77
2022-12-01T09:28:55.351Z,103.67
2022-12-01T09:31:24.357Z,110.67
2022-12-01T09:33:56.530Z,98.60
2022-12-01T09:36:24.461Z,101.90
2022-12-01T09:38:52.404Z,113.53
2022-12-01T09:41:23.826Z,105.47
2022-12-01T09:43:59.288Z,96.13
2022-12-01T09:46:33.658Z,103.17
2022-12-01T09:49:03.517Z,108.27
2022-12-01T09:51:36.014Z,101.07
2022-12-01T09:54:04.554Z,109.17
2022-12-01T09:56:34.514Z,98.67
2022-12-01T09:59:07.131Z,126.03
2022-12-01T10:01:38.404Z,107.77
2022-12-01T10:04:12.854Z,111.53
2022-12-01T10:06:45.554Z,99.90
2022-12-01T10:09:22.289Z,99.00
2022-12-01T10:11:55.341Z,93.77
2022-12-01T10:14:24.612Z,97.97
2022-12-01T10:17:04.535Z,108.43
2022-12-01T10:19:40.590Z,104.23
2022-12-01T10:22:21.763Z,103.67
2022-12-01T10:24:56.199Z,110.63
2022-12-01T10:27:36.297Z,92.27
2022-12-01T10:30:10.439Z,102.27
2022-12-01T10:32:50.223Z,112.37
2022-12-01T10:35:20.099Z,96.73
2022-12-01T10:37:56.258Z,109.20
2022-12-01T10:40:24.693Z,91.97
2022-12-01T10:42:52.794Z,105.40
2022-12-01T10:45:24.695Z,101.57
2022-12-01T10:48:15.308Z,102.83
2022-12-01T10:50:44.895Z,100.67
2022-12-01T10:53:29.046Z,89.17
2022-12-01T10:56:06.119Z,105.10
2022-12-01T10:58:41.778Z,86.47
2022-12-01T11:01:19.037Z,102.10
2022-12-01T11:03:52.601Z,92.80
2022-12-01T11:06:26.738Z,105.07
2022-12-01T11:08:57.449Z,102.97
2022-12-01T11:11:32.072Z,112.50
2022-12-01T11:14:02.557Z,91.83
2022-12-01T11:16:39.759Z,110.20
2022-12-01T11:19:26.633Z,111.33
2022-12-01T11:21:57.180Z,93.43
2022-12-01T11:24:41.438Z,99.03
2022-12-01T11:27:17.273Z,90.97
2022-12-01T11:29:47.374Z,96.90
2022-12-01T11:32:23.305Z,86.27
2022-12-01T11:34:55.640Z,88.47
2022-12-01T11:37:26.125Z,91.43
2022-12-01T11:39:54.202Z,103.65
2022-12-01T11:42:26.590Z,100.97
2022-12-01T11:44:57.705Z,83.17
2022-12-01T11:47:28.566Z,88.50
2022-12-01T11:49:57.923Z,97.43
2022-12-01T11:52:30.035Z,101.60
2022-12-01T11:55:04.292Z,83.63
2022-12-01T11:57:36.183Z,85.27
2022-12-01T12:00:13.537Z,74.17
2022-12-01T12:02:52.675Z,86.00
2022-12-01T12:05:57.685Z,69.67
2022-12-01T12:08:45.933Z,75.93
2022-12-01T12:11:19.300Z,70.57
2022-12-01T12:14:09.862Z,92.17
2022-12-01T12:16:54.150Z,78.17
2022-12-01T12:20:06.211Z,64.33
2022-12-01T12:22:41.675Z,76.50
2022-12-01T12:25:25.783Z,73.00
2022-12-01T12:28:04.456Z,75.33
2022-12-01T12:30:36.631Z,94.87
2022-12-01T12:33:27.867Z,75.90
2022-12-01T12:36:08.019Z,79.13
2022-12-01T12:38:49.273Z,81.40
2022-12-01T12:41:24.489Z,77.60
2022-12-01T12:44:04.473Z,79.60
2022-12-01T12:46:41.481Z,79.50
2022-12-01T12:49:24.940Z,84.47
2022-12-01T12:52:07.868Z,88.67
2022-12-01T12:54:44.208Z,93.50
2022-12-01T12:57:25.772Z,79.97
2022-12-01T12:59:59.189Z,83.00
2022-12-01T13:02:34.512Z,76.20
2022-12-01T13:05:07.753Z,79.83
2022-12-01T13:07:41.974Z,70.70
2022-12-01T13:10:20.461Z,72.13
2022-12-01T13:12:56.099Z,73.93
2022-12-01T13:15:23.960Z,83.53
2022-12-01T13:17:58.420Z,93.70
2022-12-01T13:20:29.143Z,89.67
2022-12-01T13:23:00.404Z,95.23
2022-12-01T13:25:33.335Z,74.50
2022-12-01T13:28:03.523Z,77.80
2022-12-01T13:30:31.366Z,84.03
2022-12-01T13:33:02.012Z,92.27
2022-12-01T13:35:34.254Z,85.53
2022-12-01T13:38:26.960Z,77.17
2022-12-01T13:41:23.757Z,83.90
2022-12-01T13:44:03.460Z,72.87
2022-12-01T13:46:34.358Z,81.27
2022-12-01T13:49:05.059Z,76.37
2022-12-01T13:52:02.667Z,77.33
2022-12-01T13:54:31.903Z,77.37
2022-12-01T13:57:02.718Z,65.70
2022-12-01T13:59:42.890Z,69.17
2022-12-01T14:02:20.573Z,69.63
2022-12-01T14:04:49.430Z,76.00
2022-12-01T14:07:37.442Z,78.53
2022-12-01T14:10:24.215Z,66.53
2022-12-01T14:12:53.700Z,65.33
2022-12-01T14:15:40.196Z,66.13
2022-12-01T14:18:25.672Z,64.43
2022-12-01T14:20:53.718Z,72.00
2022-12-01T14:23:28.905Z,67.20
2022-12-01T14:26:11.612Z,74.87
2022-12-01T14:29:19.653Z,66.13
2022-12-01T14:32:24.384Z,64.90
2022-12-01T14:34:59.187Z,62.73
2022-12-01T14:37:34.838Z,64.10
2022-12-01T14:40:08.777Z,67.30
2022-12-01T14:42:58.121Z,69.90
2022-12-01T14:45:30.003Z,65.80
2022-12-01T14:48:02.839Z,59.17
2022-12-01T14:50:43.556Z,61.00
2022-12-01T14:53:22.488Z,67.33
2022-12-01T14:55:56.137Z,62.97
2022-12-01T14:58:27.667Z,60.43
2022-12-01T15:01:01.511Z,66.43
2022-12-01T15:03:33.637Z,70.17
2022-12-01T15:06:01.683Z,67.70
2022-12-01T15:08:41.295Z,58.77
2022-12-01T15:11:21.708Z,61.40
2022-12-01T15:13:52.762Z,61.10
2022-12-01T15:16:23.023Z,65.83
2022-12-01T15:18:51.397Z,59.40
2022-12-01T15:21:21.292Z,58.80
2022-12-01T15:23:57.806Z,62.77
2022-12-01T15:26:29.352Z,59.87
2022-12-01T15:29:16.292Z,57.30
2022-12-01T15:31:46.308Z,75.43
2022-12-01T15:34:16.828Z,76.20
2022-12-01T15:36:45.799Z,68.10
2022-12-01T15:39:17.154Z,62.13
2022-12-01T15:41:46.602Z,63.77
2022-12-01T15:44:23.442Z,59.17
2022-12-01T15:46:51.269Z,62.83
2022-12-01T15:49:21.024Z,59.70
2022-12-01T15:51:50.882Z,59.10
2022-12-01T15:54:22.260Z,64.63
2022-12-01T15:56:53.934Z,60.83
2022-12-01T15:59:36.752Z,59.50
2022-12-01T16:02:16.665Z,53.97
2022-12-01T16:04:48.219Z,64.43
2022-12-01T16:07:16.584Z,62.37
2022-12-01T16:09:55.987Z,62.93
2022-12-01T16:12:25.440Z,65.37
2022-12-01T16:14:58.143Z,59.20
2022-12-01T16:17:27.416Z,62.63
2022-12-01T16:20:18.979Z,47.27
2022-12-01T16:22:48.541Z,52.43
2022-12-01T16:25:20.995Z,52.50
2022-12-01T16:27:56.854Z,55.30
2022-12-01T16:30:30.029Z,64.67
2022-12-01T16:33:03.577Z,57.10
2022-12-01T16:35:33.795Z,64.93
2022-12-01T16:38:05.514Z,65.93
2022-12-01T16:40:33.804Z,61.03
2022-12-01T16:43:01.599Z,71.17
2022-12-01T16:45:30.763Z,67.33
2022-12-01T16:48:04.841Z,70.53
2022-12-01T16:50:37.226Z,68.20
2022-12-01T16:53:05.118Z,73.80
2022-12-01T16:55:38.783Z,76.00
2022-12-01T16:58:06.793Z,87.17
2022-12-01T17:00:38.873Z,84.93
2022-12-01T17:03:07.248Z,76.87
2022-12-01T17:05:35.499Z,73.20
2022-12-01T17:08:03.414Z,71.23
2022-12-01T17:10:34.135Z,75.60
2022-12-01T17:13:01.925Z,102.20
2022-12-01T17:15:29.777Z,91.57
2022-12-01T17:17:59.056Z,113.07
2022-12-01T17:20:27.126Z,117.27
2022-12-01T17:22:54.973Z,104.80
2022-12-01T17:25:22.763Z,110.17
2022-12-01T17:27:50.610Z,115.90
2022-12-01T17:30:18.610Z,110.10
2022-12-01T17:32:47.210Z,100.40
2022-12-01T17:35:16.798Z,91.27
2022-12-01T17:37:45.046Z,98.93
2022-12-01T17:40:14.797Z,98.47
2022-12-01T17:42:48.593Z,99.50
2022-12-01T17:45:19.246Z,95.90
2022-12-01T17:47:47.054Z,109.97
2022-12-01T17:50:16.550Z,98.30
2022-12-01T17:52:46.380Z,114.83
2022-12-01T17:55:14.229Z,107.37
2022-12-01T17:57:42.036Z,113.00
2022-12-01T18:00:11.379Z,108.77
2022-12-01T18:02:39.245Z,94.37
2022-12-01T18:05:08.065Z,107.43
2022-12-01T18:07:37.333Z,96.63
2022-12-01T18:10:05.621Z,114.20
2022-12-01T18:12:33.492Z,96.77
2022-12-01T18:15:01.305Z,96.37
2022-12-01T18:17:29.101Z,105.20
2022-12-01T18:19:56.953Z,108.77
2022-12-01T18:22:24.766Z,101.63
2022-12-01T18:24:53.954Z,119.25
2022-12-01T18:27:21.733Z,113.87
2022-12-01T18:29:49.590Z,120.17
2022-12-01T18:32:17.617Z,123.50
2022-12-01T18:34:45.516Z,111.40
2022-12-01T18:37:13.312Z,100.60
2022-12-01T18:39:41.162Z,99.07
2022-12-01T18:42:10.292Z,110.10
2022-12-01T18:44:38.789Z,99.57
2022-12-01T18:47:07.012Z,87.70
2022-12-01T18:49:34.896Z,105.00
2022-12-01T18:52:03.664Z,89.00
2022-12-01T18:54:31.713Z,99.00
2022-12-01T18:57:00.199Z,91.60
2022-12-01T18:59:29.635Z,93.10
2022-12-01T19:01:57.505Z,84.77
2022-12-01T19:04:25.421Z,98.50
2022-12-01T19:06:53.368Z,112.33
2022-12-01T19:09:21.206Z,90.07
2022-12-01T19:11:49.146Z,104.77
2022-12-01T19:14:19.626Z,98.80
2022-12-01T19:16:48.893Z,92.57
2022-12-01T19:19:16.878Z,89.80
2022-12-01T19:21:45.319Z,88.00
2022-12-01T19:24:13.742Z,97.80
2022-12-01T19:26:41.546Z,92.87
2022-12-01T19:29:09.391Z,100.73
2022-12-01T19:31:37.470Z,86.83
2022-12-01T19:34:07.376Z,98.10
2022-12-01T19:36:35.241Z,95.03
2022-12-01T19:39:07.236Z,87.17
2022-12-01T19:41:35.593Z,75.80
2022-12-01T19:44:03.694Z,85.33
2022-12-01T19:46:31.502Z,94.90
2022-12-01T19:49:01.443Z,72.13
2022-12-01T19:51:34.858Z,76.13
2022-12-01T19:54:03.172Z,77.53
2022-12-01T19:56:31.435Z,65.57
2022-12-01T19:59:00.178Z,63.53
2022-12-01T20:01:28.423Z,66.50
2022-12-01T20:03:56.562Z,70.17
2022-12-01T20:06:26.397Z,58.70
2022-12-01T20:08:57.110Z,64.33
2022-12-01T20:11:25.397Z,63.80
2022-12-01T20:13:53.426Z,62.00
2022-12-01T20:16:22.831Z,58.30
2022-12-01T20:18:51.836Z,55.13
2022-12-01T20:21:22.426Z,60.73
2022-12-01T20:23:55.288Z,61.57
2022-12-01T20:26:30.222Z,61.23
2022-12-01T20:29:01.954Z,55.77
2022-12-01T20:31:32.205Z,55.27
2022-12-01T20:34:02.277Z,58.97
2022-12-01T20:36:30.801Z,52.57
2022-12-01T20:38:58.613Z,49.83
2022-12-01T20:41:27.764Z,50.27
2022-12-01T20:43:55.567Z,56.80
2022-12-01T20:46:24.010Z,52.20
2022-12-01T20:48:52.067Z,46.90
2022-12-01T20:51:20.213Z,51.07
2022-12-01T20:54:12.227Z,56.07
2022-12-01T20:56:37.206Z,49.17
2022-12-01T20:59:05.250Z,59.37
2022-12-01T21:01:33.203Z,64.20
2022-12-01T21:04:01.116Z,59.40
2022-12-01T21:06:29.734Z,63.80
2022-12-01T21:08:57.582Z,62.77
2022-12-01T21:11:41.172Z,63.20
2022-12-01T21:14:16.981Z,58.80
2022-12-01T21:16:48.149Z,64.10
2022-12-01T21:19:20.447Z,59.00
2022-12-01T21:21:48.280Z,65.37
2022-12-01T21:24:19.467Z,61.50
2022-12-01T21:26:49.237Z,61.87
2022-12-01T21:29:22.252Z,59.00
2022-12-01T21:31:51.878Z,62.47
2022-12-01T21:34:22.425Z,64.87
2022-12-01T21:36:52.708Z,68.40
2022-12-01T21:39:23.113Z,64.57
2022-12-01T21:41:53.820Z,59.20
2022-12-01T21:44:27.566Z,61.90
2022-12-01T21:47:01.555Z,70.40
2022-12-01T21:49:35.978Z,62.53
2022-12-01T21:52:13.109Z,61.80
2022-12-01T21:54:41.105Z,60.60
2022-12-01T21:57:27.292Z,60.13
2022-12-01T22:00:05.959Z,63.70
2022-12-01T22:02:47.969Z,61.73
2022-12-01T22:05:27.697Z,63.60
2022-12-01T22:08:01.012Z,67.63
2022-12-01T22:10:52.170Z,67.73
2022-12-01T22:13:20.445Z,63.83
2022-12-01T22:15:49.968Z,65.00
2022-12-01T22:18:23.479Z,65.07
2022-12-01T22:20:51.852Z,65.50
2022-12-01T22:23:20.657Z,63.43
2022-12-01T22:25:49.202Z,70.37
2022-12-01T22:28:21.960Z,69.17
2022-12-01T22:30:51.315Z,71.13
2022-12-01T22:33:22.101Z,62.47
2022-12-01T22:35:52.596Z,71.30
2022-12-01T22:38:33.250Z,66.17
2022-12-01T22:41:04.815Z,73.27
2022-12-01T22:43:42.831Z,67.27
2022-12-01T22:46:33.264Z,62.57
2022-12-01T22:49:13.578Z,68.93
2022-12-01T22:51:44.524Z,69.10
2022-12-01T22:54:30.484Z,74.23
2022-12-01T22:57:19.362Z,71.17
2022-12-01T22:59:47.939Z,64.37
2022-12-01T23:02:21.964Z,61.80
2022-12-01T23:04:52.430Z,75.63
2022-12-01T23:07:32.868Z,68.80
2022-12-01T23:10:06.603Z,70.37
2022-12-01T23:12:36.235Z,69.23
2022-12-01T23:15:17.533Z,67.10
2022-12-01T23:17:46.655Z,68.07
2022-12-01T23:20:29.189Z,62.20
2022-12-01T23:22:58.073Z,63.83
2022-12-01T23:25:27.316Z,69.63
2022-12-01T23:27:59.144Z,70.67
2022-12-01T23:30:27.026Z,71.13
2022-12-01T23:33:17.657Z,78.03
2022-12-01T23:35:48.875Z,68.57
2022-12-01T23:38:20.066Z,72.83
2022-12-01T23:40:48.748Z,60.97
2022-12-01T23:43:21.250Z,72.60
2022-12-01T23:45:51.886Z,68.67
2022-12-01T23:48:24.130Z,71.43
2022-12-01T23:50:53.857Z,63.80
2022-12-01T23:53:28.000Z,71.53
2022-12-01T23:55:56.440Z,73.53
2022-12-01T23:58:24.377Z,71.47
